sensor_id;sensor_type;location;lat;lon;timestamp;P1;durP1;ratioP1;P2;durP2;ratioP2
6163;SDS011;3114;48.362;10.994;2023-02-01T00:02:03;3.53;;;2.60;;
6163;SDS011;3114;48.362;10.994;2023-02-01T00:04:30;5.70;;;2.47;;
6163;SDS011;3114;48.362;10.994;2023-02-01T00:06:57;3.73;;;2.30;;
6163;SDS011;3114;48.362;10.994;2023-02-01T00:09:25;3.07;;;1.70;;
6163;SDS011;3114;48.362;10.994;2023-02-01T00:11:52;3.97;;;1.67;;
6163;SDS011;3114;48.362;10.994;2023-02-01T00:14:21;4.83;;;2.93;;
6163;SDS011;3114;48.362;10.994;2023-02-01T00:16:48;6.33;;;2.57;;
6163;SDS011;3114;48.362;10.994;2023-02-01T00:19:15;4.83;;;2.83;;
6163;SDS011;3114;48.362;10.994;2023-02-01T00:21:42;5.07;;;2.60;;
6163;SDS011;3114;48.362;10.994;2023-02-01T00:24:10;4.50;;;2.37;;
6163;SDS011;3114;48.362;10.994;2023-02-01T00:26:38;5.10;;;2.83;;
6163;SDS011;3114;48.362;10.994;2023-02-01T00:29:09;6.30;;;2.20;;
6163;SDS011;3114;48.362;10.994;2023-02-01T00:31:39;4.87;;;2.33;;
6163;SDS011;3114;48.362;10.994;2023-02-01T00:34:08;3.77;;;2.07;;
6163;SDS011;3114;48.362;10.994;2023-02-01T00:36:36;4.50;;;2.50;;
6163;SDS011;3114;48.362;10.994;2023-02-01T00:39:03;3.30;;;1.93;;
6163;SDS011;3114;48.362;10.994;2023-02-01T00:41:30;5.47;;;2.70;;
6163;SDS011;3114;48.362;10.994;2023-02-01T00:43:57;2.60;;;1.93;;
6163;SDS011;3114;48.362;10.994;2023-02-01T00:46:24;3.93;;;2.50;;
6163;SDS011;3114;48.362;10.994;2023-02-01T00:48:52;3.57;;;2.23;;
6163;SDS011;3114;48.362;10.994;2023-02-01T00:51:21;5.70;;;2.83;;
6163;SDS011;3114;48.362;10.994;2023-02-01T00:53:49;4.83;;;2.80;;
6163;SDS011;3114;48.362;10.994;2023-02-01T00:56:16;3.47;;;2.27;;
6163;SDS011;3114;48.362;10.994;2023-02-01T00:58:43;5.27;;;2.70;;
6163;SDS011;3114;48.362;10.994;2023-02-01T01:01:12;4.73;;;2.97;;
6163;SDS011;3114;48.362;10.994;2023-02-01T01:03:41;4.53;;;3.00;;
6163;SDS011;3114;48.362;10.994;2023-02-01T01:06:11;4.80;;;2.80;;
6163;SDS011;3114;48.362;10.994;2023-02-01T01:08:40;6.60;;;3.47;;
6163;SDS011;3114;48.362;10.994;2023-02-01T01:11:08;4.47;;;2.93;;
6163;SDS011;3114;48.362;10.994;2023-02-01T01:13:37;7.23;;;2.93;;
6163;SDS011;3114;48.362;10.994;2023-02-01T01:16:05;3.73;;;2.10;;
6163;SDS011;3114;48.362;10.994;2023-02-01T01:18:33;2.57;;;2.27;;
6163;SDS011;3114;48.362;10.994;2023-02-01T01:21:01;6.10;;;2.53;;
6163;SDS011;3114;48.362;10.994;2023-02-01T01:23:31;5.53;;;2.83;;
6163;SDS011;3114;48.362;10.994;2023-02-01T01:25:58;3.53;;;2.30;;
6163;SDS011;3114;48.362;10.994;2023-02-01T01:28:25;6.07;;;3.53;;
6163;SDS011;3114;48.362;10.994;2023-02-01T01:30:51;5.33;;;3.13;;
6163;SDS011;3114;48.362;10.994;2023-02-01T01:33:18;4.73;;;2.93;;
6163;SDS011;3114;48.362;10.994;2023-02-01T01:35:45;7.37;;;3.20;;
6163;SDS011;3114;48.362;10.994;2023-02-01T01:38:12;3.57;;;1.97;;
6163;SDS011;3114;48.362;10.994;2023-02-01T01:40:40;8.07;;;3.43;;
6163;SDS011;3114;48.362;10.994;2023-02-01T01:43:12;4.80;;;3.00;;
6163;SDS011;3114;48.362;10.994;2023-02-01T01:45:40;4.60;;;3.00;;
6163;SDS011;3114;48.362;10.994;2023-02-01T01:48:08;4.80;;;3.33;;
6163;SDS011;3114;48.362;10.994;2023-02-01T01:50:40;4.70;;;2.77;;
6163;SDS011;3114;48.362;10.994;2023-02-01T01:53:13;4.43;;;2.87;;
6163;SDS011;3114;48.362;10.994;2023-02-01T01:55:46;3.97;;;2.67;;
6163;SDS011;3114;48.362;10.994;2023-02-01T01:58:16;6.73;;;3.13;;
6163;SDS011;3114;48.362;10.994;2023-02-01T02:00:45;6.27;;;3.40;;
6163;SDS011;3114;48.362;10.994;2023-02-01T02:03:15;7.07;;;3.20;;
6163;SDS011;3114;48.362;10.994;2023-02-01T02:05:46;5.40;;;3.47;;
6163;SDS011;3114;48.362;10.994;2023-02-01T02:08:16;6.00;;;3.30;;
6163;SDS011;3114;48.362;10.994;2023-02-01T02:10:46;5.60;;;3.20;;
6163;SDS011;3114;48.362;10.994;2023-02-01T02:13:27;5.17;;;3.40;;
6163;SDS011;3114;48.362;10.994;2023-02-01T02:16:04;5.57;;;3.03;;
6163;SDS011;3114;48.362;10.994;2023-02-01T02:18:41;4.40;;;2.87;;
6163;SDS011;3114;48.362;10.994;2023-02-01T02:21:18;4.90;;;3.80;;
6163;SDS011;3114;48.362;10.994;2023-02-01T02:27:15;3.60;;;2.87;;
6163;SDS011;3114;48.362;10.994;2023-02-01T02:33:20;6.90;;;3.47;;
6163;SDS011;3114;48.362;10.994;2023-02-01T02:36:04;3.83;;;3.10;;
6163;SDS011;3114;48.362;10.994;2023-02-01T02:38:39;4.73;;;2.90;;
6163;SDS011;3114;48.362;10.994;2023-02-01T02:41:13;2.90;;;1.93;;
6163;SDS011;3114;48.362;10.994;2023-02-01T02:43:58;4.43;;;2.50;;
6163;SDS011;3114;48.362;10.994;2023-02-01T02:46:46;6.23;;;2.97;;
6163;SDS011;3114;48.362;10.994;2023-02-01T02:49:36;7.20;;;2.97;;
6163;SDS011;3114;48.362;10.994;2023-02-01T02:52:08;3.03;;;2.20;;
6163;SDS011;3114;48.362;10.994;2023-02-01T02:54:57;2.70;;;1.60;;
6163;SDS011;3114;48.362;10.994;2023-02-01T02:57:29;3.80;;;2.80;;
6163;SDS011;3114;48.362;10.994;2023-02-01T03:00:17;2.83;;;2.17;;
6163;SDS011;3114;48.362;10.994;2023-02-01T03:03:04;3.67;;;2.43;;
6163;SDS011;3114;48.362;10.994;2023-02-01T03:05:51;3.67;;;2.43;;
6163;SDS011;3114;48.362;10.994;2023-02-01T03:08:19;3.60;;;2.10;;
6163;SDS011;3114;48.362;10.994;2023-02-01T03:10:48;4.37;;;2.10;;
6163;SDS011;3114;48.362;10.994;2023-02-01T03:13:22;4.97;;;2.80;;
6163;SDS011;3114;48.362;10.994;2023-02-01T03:16:03;5.03;;;2.30;;
6163;SDS011;3114;48.362;10.994;2023-02-01T03:18:39;4.33;;;2.40;;
6163;SDS011;3114;48.362;10.994;2023-02-01T03:21:13;2.10;;;1.87;;
6163;SDS011;3114;48.362;10.994;2023-02-01T03:23:43;3.57;;;2.60;;
6163;SDS011;3114;48.362;10.994;2023-02-01T03:26:13;2.37;;;1.90;;
6163;SDS011;3114;48.362;10.994;2023-02-01T03:28:44;3.97;;;2.67;;
6163;SDS011;3114;48.362;10.994;2023-02-01T03:31:16;4.23;;;2.97;;
6163;SDS011;3114;48.362;10.994;2023-02-01T03:33:43;4.37;;;2.40;;
6163;SDS011;3114;48.362;10.994;2023-02-01T03:36:15;3.53;;;2.30;;
6163;SDS011;3114;48.362;10.994;2023-02-01T03:38:49;3.50;;;2.53;;
6163;SDS011;3114;48.362;10.994;2023-02-01T03:41:18;3.03;;;2.30;;
6163;SDS011;3114;48.362;10.994;2023-02-01T03:43:51;5.97;;;2.80;;
6163;SDS011;3114;48.362;10.994;2023-02-01T03:46:23;5.30;;;2.40;;
6163;SDS011;3114;48.362;10.994;2023-02-01T03:48:57;2.67;;;1.80;;
6163;SDS011;3114;48.362;10.994;2023-02-01T03:51:28;2.07;;;1.83;;
6163;SDS011;3114;48.362;10.994;2023-02-01T03:53:57;4.07;;;2.07;;
6163;SDS011;3114;48.362;10.994;2023-02-01T03:56:25;3.93;;;2.10;;
6163;SDS011;3114;48.362;10.994;2023-02-01T03:58:54;3.60;;;2.30;;
6163;SDS011;3114;48.362;10.994;2023-02-01T04:01:25;4.53;;;2.33;;
6163;SDS011;3114;48.362;10.994;2023-02-01T04:03:54;3.63;;;2.00;;
6163;SDS011;3114;48.362;10.994;2023-02-01T04:06:21;2.90;;;2.23;;
6163;SDS011;3114;48.362;10.994;2023-02-01T04:08:49;4.30;;;2.40;;
6163;SDS011;3114;48.362;10.994;2023-02-01T04:11:17;2.43;;;1.90;;
6163;SDS011;3114;48.362;10.994;2023-02-01T04:13:44;3.53;;;2.40;;
6163;SDS011;3114;48.362;10.994;2023-02-01T04:16:11;3.80;;;2.50;;
6163;SDS011;3114;48.362;10.994;2023-02-01T04:18:38;3.90;;;2.67;;
6163;SDS011;3114;48.362;10.994;2023-02-01T04:21:05;2.53;;;1.53;;
6163;SDS011;3114;48.362;10.994;2023-02-01T04:23:32;2.67;;;1.50;;
6163;SDS011;3114;48.362;10.994;2023-02-01T04:26:01;2.07;;;1.87;;
6163;SDS011;3114;48.362;10.994;2023-02-01T04:28:29;3.97;;;2.10;;
6163;SDS011;3114;48.362;10.994;2023-02-01T04:30:56;4.43;;;2.10;;
6163;SDS011;3114;48.362;10.994;2023-02-01T04:33:23;3.73;;;2.03;;
6163;SDS011;3114;48.362;10.994;2023-02-01T04:35:50;3.77;;;1.90;;
6163;SDS011;3114;48.362;10.994;2023-02-01T04:38:17;2.37;;;2.03;;
6163;SDS011;3114;48.362;10.994;2023-02-01T04:40:46;5.13;;;2.30;;
6163;SDS011;3114;48.362;10.994;2023-02-01T04:43:14;3.13;;;2.00;;
6163;SDS011;3114;48.362;10.994;2023-02-01T04:45:41;3.73;;;1.80;;
6163;SDS011;3114;48.362;10.994;2023-02-01T04:48:13;2.70;;;2.13;;
6163;SDS011;3114;48.362;10.994;2023-02-01T04:50:40;4.63;;;2.17;;
6163;SDS011;3114;48.362;10.994;2023-02-01T04:53:07;7.20;;;2.33;;
6163;SDS011;3114;48.362;10.994;2023-02-01T04:55:34;4.40;;;2.40;;
6163;SDS011;3114;48.362;10.994;2023-02-01T04:58:01;2.50;;;1.73;;
6163;SDS011;3114;48.362;10.994;2023-02-01T05:00:29;2.70;;;1.80;;
6163;SDS011;3114;48.362;10.994;2023-02-01T05:02:56;2.83;;;2.03;;
6163;SDS011;3114;48.362;10.994;2023-02-01T05:05:23;4.47;;;2.60;;
6163;SDS011;3114;48.362;10.994;2023-02-01T05:07:50;1.60;;;1.43;;
6163;SDS011;3114;48.362;10.994;2023-02-01T05:10:17;1.63;;;1.53;;
6163;SDS011;3114;48.362;10.994;2023-02-01T05:12:44;3.13;;;2.17;;
6163;SDS011;3114;48.362;10.994;2023-02-01T05:15:30;6.67;;;1.93;;
6163;SDS011;3114;48.362;10.994;2023-02-01T05:17:57;3.07;;;2.17;;
6163;SDS011;3114;48.362;10.994;2023-02-01T05:20:24;2.03;;;1.40;;
6163;SDS011;3114;48.362;10.994;2023-02-01T05:22:51;3.80;;;2.20;;
6163;SDS011;3114;48.362;10.994;2023-02-01T05:25:18;3.17;;;2.27;;
6163;SDS011;3114;48.362;10.994;2023-02-01T05:27:45;2.67;;;1.77;;
6163;SDS011;3114;48.362;10.994;2023-02-01T05:30:12;4.30;;;2.20;;
6163;SDS011;3114;48.362;10.994;2023-02-01T05:32:40;2.77;;;2.30;;
6163;SDS011;3114;48.362;10.994;2023-02-01T05:35:08;3.50;;;1.97;;
6163;SDS011;3114;48.362;10.994;2023-02-01T05:37:35;3.70;;;2.03;;
6163;SDS011;3114;48.362;10.994;2023-02-01T05:40:02;2.67;;;1.93;;
6163;SDS011;3114;48.362;10.994;2023-02-01T05:42:29;3.60;;;2.00;;
6163;SDS011;3114;48.362;10.994;2023-02-01T05:44:56;1.67;;;1.47;;
6163;SDS011;3114;48.362;10.994;2023-02-01T05:47:23;4.00;;;2.50;;
6163;SDS011;3114;48.362;10.994;2023-02-01T05:49:52;4.57;;;2.40;;
6163;SDS011;3114;48.362;10.994;2023-02-01T05:52:19;3.77;;;2.07;;
6163;SDS011;3114;48.362;10.994;2023-02-01T05:54:45;2.13;;;1.43;;
6163;SDS011;3114;48.362;10.994;2023-02-01T05:57:12;2.60;;;2.20;;
6163;SDS011;3114;48.362;10.994;2023-02-01T05:59:40;3.73;;;2.00;;
6163;SDS011;3114;48.362;10.994;2023-02-01T06:02:09;2.77;;;1.80;;
6163;SDS011;3114;48.362;10.994;2023-02-01T06:04:36;3.63;;;2.27;;
6163;SDS011;3114;48.362;10.994;2023-02-01T06:07:05;3.43;;;1.70;;
6163;SDS011;3114;48.362;10.994;2023-02-01T06:09:32;2.50;;;1.80;;
6163;SDS011;3114;48.362;10.994;2023-02-01T06:11:59;2.00;;;1.80;;
6163;SDS011;3114;48.362;10.994;2023-02-01T06:14:27;3.93;;;2.43;;
6163;SDS011;3114;48.362;10.994;2023-02-01T06:16:54;2.97;;;2.17;;
6163;SDS011;3114;48.362;10.994;2023-02-01T06:19:21;3.70;;;1.77;;
6163;SDS011;3114;48.362;10.994;2023-02-01T06:21:48;3.20;;;2.10;;
6163;SDS011;3114;48.362;10.994;2023-02-01T06:24:16;2.00;;;1.40;;
6163;SDS011;3114;48.362;10.994;2023-02-01T06:26:43;2.77;;;1.90;;
6163;SDS011;3114;48.362;10.994;2023-02-01T06:29:10;2.20;;;1.63;;
6163;SDS011;3114;48.362;10.994;2023-02-01T06:31:37;2.93;;;1.90;;
6163;SDS011;3114;48.362;10.994;2023-02-01T06:34:04;2.63;;;2.10;;
6163;SDS011;3114;48.362;10.994;2023-02-01T06:36:31;2.87;;;2.07;;
6163;SDS011;3114;48.362;10.994;2023-02-01T06:38:58;4.37;;;2.00;;
6163;SDS011;3114;48.362;10.994;2023-02-01T06:41:26;3.67;;;2.60;;
6163;SDS011;3114;48.362;10.994;2023-02-01T06:43:53;2.40;;;2.00;;
6163;SDS011;3114;48.362;10.994;2023-02-01T06:46:20;4.77;;;2.80;;
6163;SDS011;3114;48.362;10.994;2023-02-01T06:48:47;3.20;;;1.40;;
6163;SDS011;3114;48.362;10.994;2023-02-01T06:51:18;3.53;;;2.10;;
6163;SDS011;3114;48.362;10.994;2023-02-01T06:53:47;2.90;;;2.17;;
6163;SDS011;3114;48.362;10.994;2023-02-01T06:56:14;3.03;;;2.00;;
6163;SDS011;3114;48.362;10.994;2023-02-01T06:58:42;2.90;;;2.10;;
6163;SDS011;3114;48.362;10.994;2023-02-01T07:01:09;1.60;;;1.43;;
6163;SDS011;3114;48.362;10.994;2023-02-01T07:03:37;2.97;;;2.20;;
6163;SDS011;3114;48.362;10.994;2023-02-01T07:06:04;2.20;;;1.70;;
6163;SDS011;3114;48.362;10.994;2023-02-01T07:08:32;2.77;;;2.07;;
6163;SDS011;3114;48.362;10.994;2023-02-01T07:11:01;2.50;;;2.20;;
6163;SDS011;3114;48.362;10.994;2023-02-01T07:13:28;3.67;;;1.70;;
6163;SDS011;3114;48.362;10.994;2023-02-01T07:15:58;2.40;;;2.17;;
6163;SDS011;3114;48.362;10.994;2023-02-01T07:18:26;4.63;;;2.63;;
6163;SDS011;3114;48.362;10.994;2023-02-01T07:20:53;3.13;;;2.40;;
6163;SDS011;3114;48.362;10.994;2023-02-01T07:23:20;3.77;;;2.47;;
6163;SDS011;3114;48.362;10.994;2023-02-01T07:25:48;3.03;;;1.97;;
6163;SDS011;3114;48.362;10.994;2023-02-01T07:28:15;2.17;;;1.70;;
6163;SDS011;3114;48.362;10.994;2023-02-01T07:30:41;3.57;;;2.40;;
6163;SDS011;3114;48.362;10.994;2023-02-01T07:33:10;4.37;;;2.60;;
6163;SDS011;3114;48.362;10.994;2023-02-01T07:35:36;3.07;;;2.40;;
6163;SDS011;3114;48.362;10.994;2023-02-01T07:38:03;6.60;;;2.57;;
6163;SDS011;3114;48.362;10.994;2023-02-01T07:40:30;1.93;;;1.57;;
6163;SDS011;3114;48.362;10.994;2023-02-01T07:42:57;3.37;;;2.40;;
6163;SDS011;3114;48.362;10.994;2023-02-01T07:45:25;3.53;;;2.20;;
6163;SDS011;3114;48.362;10.994;2023-02-01T07:47:52;3.33;;;1.97;;
6163;SDS011;3114;48.362;10.994;2023-02-01T07:50:20;3.60;;;2.33;;
6163;SDS011;3114;48.362;10.994;2023-02-01T07:52:47;3.13;;;2.17;;
6163;SDS011;3114;48.362;10.994;2023-02-01T07:55:14;4.13;;;1.87;;
6163;SDS011;3114;48.362;10.994;2023-02-01T07:57:41;3.00;;;2.20;;
6163;SDS011;3114;48.362;10.994;2023-02-01T08:00:08;2.47;;;1.43;;
6163;SDS011;3114;48.362;10.994;2023-02-01T08:02:53;3.40;;;1.83;;
6163;SDS011;3114;48.362;10.994;2023-02-01T08:05:21;2.77;;;1.77;;
6163;SDS011;3114;48.362;10.994;2023-02-01T08:07:48;3.20;;;1.70;;
6163;SDS011;3114;48.362;10.994;2023-02-01T08:10:16;1.70;;;1.30;;
6163;SDS011;3114;48.362;10.994;2023-02-01T08:12:43;4.10;;;1.53;;
6163;SDS011;3114;48.362;10.994;2023-02-01T08:15:13;1.93;;;1.27;;
6163;SDS011;3114;48.362;10.994;2023-02-01T08:17:45;1.93;;;1.23;;
6163;SDS011;3114;48.362;10.994;2023-02-01T08:20:13;3.87;;;1.90;;
6163;SDS011;3114;48.362;10.994;2023-02-01T08:22:45;1.90;;;1.50;;
6163;SDS011;3114;48.362;10.994;2023-02-01T08:25:12;3.53;;;1.53;;
6163;SDS011;3114;48.362;10.994;2023-02-01T08:27:39;2.30;;;1.63;;
6163;SDS011;3114;48.362;10.994;2023-02-01T08:30:06;1.67;;;1.00;;
6163;SDS011;3114;48.362;10.994;2023-02-01T08:32:34;2.47;;;1.77;;
6163;SDS011;3114;48.362;10.994;2023-02-01T08:35:02;3.03;;;1.33;;
6163;SDS011;3114;48.362;10.994;2023-02-01T08:37:30;2.33;;;1.60;;
6163;SDS011;3114;48.362;10.994;2023-02-01T08:39:58;2.37;;;1.30;;
6163;SDS011;3114;48.362;10.994;2023-02-01T08:42:25;1.80;;;1.30;;
6163;SDS011;3114;48.362;10.994;2023-02-01T08:45:06;1.20;;;1.10;;
6163;SDS011;3114;48.362;10.994;2023-02-01T08:47:34;2.10;;;1.53;;
6163;SDS011;3114;48.362;10.994;2023-02-01T08:50:01;1.27;;;1.17;;
6163;SDS011;3114;48.362;10.994;2023-02-01T08:52:29;4.23;;;1.97;;
6163;SDS011;3114;48.362;10.994;2023-02-01T08:54:55;3.33;;;1.90;;
6163;SDS011;3114;48.362;10.994;2023-02-01T08:57:24;2.87;;;1.70;;
6163;SDS011;3114;48.362;10.994;2023-02-01T08:59:51;2.17;;;1.47;;
6163;SDS011;3114;48.362;10.994;2023-02-01T09:02:17;2.00;;;1.60;;
6163;SDS011;3114;48.362;10.994;2023-02-01T09:04:44;2.50;;;1.67;;
6163;SDS011;3114;48.362;10.994;2023-02-01T09:07:11;1.43;;;1.33;;
6163;SDS011;3114;48.362;10.994;2023-02-01T09:09:38;1.30;;;1.20;;
6163;SDS011;3114;48.362;10.994;2023-02-01T09:12:05;3.47;;;1.60;;
6163;SDS011;3114;48.362;10.994;2023-02-01T09:14:34;2.87;;;1.30;;
6163;SDS011;3114;48.362;10.994;2023-02-01T09:17:01;1.50;;;1.13;;
6163;SDS011;3114;48.362;10.994;2023-02-01T09:19:27;3.03;;;1.80;;
6163;SDS011;3114;48.362;10.994;2023-02-01T09:21:54;2.90;;;1.70;;
6163;SDS011;3114;48.362;10.994;2023-02-01T09:24:21;3.17;;;1.67;;
6163;SDS011;3114;48.362;10.994;2023-02-01T09:26:48;2.63;;;1.63;;
6163;SDS011;3114;48.362;10.994;2023-02-01T09:29:15;4.80;;;1.80;;
6163;SDS011;3114;48.362;10.994;2023-02-01T09:31:43;1.67;;;1.50;;
6163;SDS011;3114;48.362;10.994;2023-02-01T09:34:10;3.83;;;1.77;;
6163;SDS011;3114;48.362;10.994;2023-02-01T09:36:37;2.93;;;1.60;;
6163;SDS011;3114;48.362;10.994;2023-02-01T09:39:04;2.67;;;1.50;;
6163;SDS011;3114;48.362;10.994;2023-02-01T09:41:40;1.83;;;1.40;;
6163;SDS011;3114;48.362;10.994;2023-02-01T09:44:24;1.23;;;1.03;;
6163;SDS011;3114;48.362;10.994;2023-02-01T09:47:12;2.27;;;1.50;;
6163;SDS011;3114;48.362;10.994;2023-02-01T09:49:43;2.17;;;1.70;;
6163;SDS011;3114;48.362;10.994;2023-02-01T09:52:17;2.70;;;1.93;;
6163;SDS011;3114;48.362;10.994;2023-02-01T09:54:52;2.90;;;1.90;;
6163;SDS011;3114;48.362;10.994;2023-02-01T09:57:26;3.00;;;1.43;;
6163;SDS011;3114;48.362;10.994;2023-02-01T10:00:03;5.43;;;1.60;;
6163;SDS011;3114;48.362;10.994;2023-02-01T10:02:35;3.37;;;1.50;;
6163;SDS011;3114;48.362;10.994;2023-02-01T10:05:05;2.10;;;1.57;;
6163;SDS011;3114;48.362;10.994;2023-02-01T10:07:41;3.23;;;1.63;;
6163;SDS011;3114;48.362;10.994;2023-02-01T10:10:13;2.47;;;1.77;;
6163;SDS011;3114;48.362;10.994;2023-02-01T10:12:59;1.73;;;1.60;;
6163;SDS011;3114;48.362;10.994;2023-02-01T10:15:48;3.23;;;2.00;;
6163;SDS011;3114;48.362;10.994;2023-02-01T10:18:29;7.10;;;1.90;;
6163;SDS011;3114;48.362;10.994;2023-02-01T10:21:19;2.23;;;1.57;;
6163;SDS011;3114;48.362;10.994;2023-02-01T10:23:58;2.70;;;1.37;;
6163;SDS011;3114;48.362;10.994;2023-02-01T10:26:36;4.30;;;2.07;;
6163;SDS011;3114;48.362;10.994;2023-02-01T10:29:10;2.23;;;1.60;;
6163;SDS011;3114;48.362;10.994;2023-02-01T10:31:42;3.37;;;1.53;;
6163;SDS011;3114;48.362;10.994;2023-02-01T10:34:14;1.33;;;1.23;;
6163;SDS011;3114;48.362;10.994;2023-02-01T10:36:50;2.57;;;1.23;;
6163;SDS011;3114;48.362;10.994;2023-02-01T10:39:20;3.03;;;1.40;;
6163;SDS011;3114;48.362;10.994;2023-02-01T10:41:47;1.73;;;1.60;;
6163;SDS011;3114;48.362;10.994;2023-02-01T10:44:16;3.50;;;1.60;;
6163;SDS011;3114;48.362;10.994;2023-02-01T10:46:47;2.23;;;1.27;;
6163;SDS011;3114;48.362;10.994;2023-02-01T10:49:17;4.13;;;2.33;;
6163;SDS011;3114;48.362;10.994;2023-02-01T10:51:49;6.00;;;1.60;;
6163;SDS011;3114;48.362;10.994;2023-02-01T10:54:20;2.27;;;1.63;;
6163;SDS011;3114;48.362;10.994;2023-02-01T10:56:57;2.70;;;1.40;;
6163;SDS011;3114;48.362;10.994;2023-02-01T10:59:24;3.27;;;2.10;;
6163;SDS011;3114;48.362;10.994;2023-02-01T11:01:58;2.97;;;2.10;;
6163;SDS011;3114;48.362;10.994;2023-02-01T11:04:27;5.30;;;2.50;;
6163;SDS011;3114;48.362;10.994;2023-02-01T11:07:04;3.90;;;2.53;;
6163;SDS011;3114;48.362;10.994;2023-02-01T11:09:33;4.37;;;2.13;;
6163;SDS011;3114;48.362;10.994;2023-02-01T11:12:04;2.50;;;1.90;;
6163;SDS011;3114;48.362;10.994;2023-02-01T11:14:46;2.47;;;1.23;;
6163;SDS011;3114;48.362;10.994;2023-02-01T11:17:18;2.40;;;1.83;;
6163;SDS011;3114;48.362;10.994;2023-02-01T11:19:59;2.83;;;2.17;;
6163;SDS011;3114;48.362;10.994;2023-02-01T11:22:27;3.30;;;1.90;;
6163;SDS011;3114;48.362;10.994;2023-02-01T11:24:55;5.97;;;2.20;;
6163;SDS011;3114;48.362;10.994;2023-02-01T11:27:23;4.67;;;2.20;;
6163;SDS011;3114;48.362;10.994;2023-02-01T11:29:52;3.33;;;2.40;;
6163;SDS011;3114;48.362;10.994;2023-02-01T11:32:25;2.83;;;1.90;;
6163;SDS011;3114;48.362;10.994;2023-02-01T11:34:55;2.73;;;1.77;;
6163;SDS011;3114;48.362;10.994;2023-02-01T11:37:27;2.83;;;1.50;;
6163;SDS011;3114;48.362;10.994;2023-02-01T11:39:57;3.53;;;2.40;;
6163;SDS011;3114;48.362;10.994;2023-02-01T11:42:25;4.83;;;2.00;;
6163;SDS011;3114;48.362;10.994;2023-02-01T11:45:13;2.87;;;1.83;;
6163;SDS011;3114;48.362;10.994;2023-02-01T11:47:44;3.00;;;1.93;;
6163;SDS011;3114;48.362;10.994;2023-02-01T11:50:15;5.07;;;2.10;;
6163;SDS011;3114;48.362;10.994;2023-02-01T11:52:53;3.27;;;2.10;;
6163;SDS011;3114;48.362;10.994;2023-02-01T11:55:42;3.03;;;2.13;;
6163;SDS011;3114;48.362;10.994;2023-02-01T11:58:25;2.03;;;1.30;;
6163;SDS011;3114;48.362;10.994;2023-02-01T12:01:19;4.90;;;2.33;;
6163;SDS011;3114;48.362;10.994;2023-02-01T12:04:10;5.67;;;1.40;;
6163;SDS011;3114;48.362;10.994;2023-02-01T12:06:58;3.43;;;2.40;;
6163;SDS011;3114;48.362;10.994;2023-02-01T12:09:36;4.73;;;1.93;;
6163;SDS011;3114;48.362;10.994;2023-02-01T12:12:15;5.33;;;2.30;;
6163;SDS011;3114;48.362;10.994;2023-02-01T12:14:51;2.37;;;1.80;;
6163;SDS011;3114;48.362;10.994;2023-02-01T12:17:38;4.23;;;1.80;;
6163;SDS011;3114;48.362;10.994;2023-02-01T12:20:17;3.03;;;1.63;;
6163;SDS011;3114;48.362;10.994;2023-02-01T12:22:54;3.33;;;1.60;;
6163;SDS011;3114;48.362;10.994;2023-02-01T12:25:30;5.73;;;2.33;;
6163;SDS011;3114;48.362;10.994;2023-02-01T12:28:22;2.37;;;1.67;;
6163;SDS011;3114;48.362;10.994;2023-02-01T12:31:12;2.87;;;1.80;;
6163;SDS011;3114;48.362;10.994;2023-02-01T12:33:52;6.10;;;1.90;;
6163;SDS011;3114;48.362;10.994;2023-02-01T12:36:30;3.30;;;1.60;;
6163;SDS011;3114;48.362;10.994;2023-02-01T12:39:05;3.93;;;1.97;;
6163;SDS011;3114;48.362;10.994;2023-02-01T12:41:49;2.10;;;1.13;;
6163;SDS011;3114;48.362;10.994;2023-02-01T12:44:24;2.50;;;1.50;;
6163;SDS011;3114;48.362;10.994;2023-02-01T12:46:59;5.60;;;1.60;;
6163;SDS011;3114;48.362;10.994;2023-02-01T12:49:34;5.27;;;2.03;;
6163;SDS011;3114;48.362;10.994;2023-02-01T12:52:11;3.77;;;1.97;;
6163;SDS011;3114;48.362;10.994;2023-02-01T12:54:45;2.30;;;0.93;;
6163;SDS011;3114;48.362;10.994;2023-02-01T12:57:16;3.93;;;2.13;;
6163;SDS011;3114;48.362;10.994;2023-02-01T12:59:48;3.57;;;2.00;;
6163;SDS011;3114;48.362;10.994;2023-02-01T13:02:22;3.47;;;2.10;;
6163;SDS011;3114;48.362;10.994;2023-02-01T13:04:56;3.40;;;2.10;;
6163;SDS011;3114;48.362;10.994;2023-02-01T13:07:29;4.70;;;2.40;;
6163;SDS011;3114;48.362;10.994;2023-02-01T13:10:03;3.70;;;2.10;;
6163;SDS011;3114;48.362;10.994;2023-02-01T13:12:40;3.93;;;2.10;;
6163;SDS011;3114;48.362;10.994;2023-02-01T13:15:14;3.97;;;1.73;;
6163;SDS011;3114;48.362;10.994;2023-02-01T13:17:45;3.90;;;2.13;;
6163;SDS011;3114;48.362;10.994;2023-02-01T13:20:16;3.10;;;1.93;;
6163;SDS011;3114;48.362;10.994;2023-02-01T13:22:48;4.63;;;2.23;;
6163;SDS011;3114;48.362;10.994;2023-02-01T13:25:23;2.77;;;1.73;;
6163;SDS011;3114;48.362;10.994;2023-02-01T13:27:55;6.40;;;2.23;;
6163;SDS011;3114;48.362;10.994;2023-02-01T13:30:28;4.90;;;2.33;;
6163;SDS011;3114;48.362;10.994;2023-02-01T13:36:05;3.00;;;1.97;;
6163;SDS011;3114;48.362;10.994;2023-02-01T13:39:00;5.17;;;2.00;;
6163;SDS011;3114;48.362;10.994;2023-02-01T13:41:42;4.73;;;1.30;;
6163;SDS011;3114;48.362;10.994;2023-02-01T13:44:20;6.60;;;2.13;;
6163;SDS011;3114;48.362;10.994;2023-02-01T13:46:52;3.53;;;2.40;;
6163;SDS011;3114;48.362;10.994;2023-02-01T13:49:24;3.30;;;1.67;;
6163;SDS011;3114;48.362;10.994;2023-02-01T13:51:53;5.60;;;2.50;;
6163;SDS011;3114;48.362;10.994;2023-02-01T13:54:23;4.13;;;2.40;;
6163;SDS011;3114;48.362;10.994;2023-02-01T13:56:55;3.70;;;1.80;;
6163;SDS011;3114;48.362;10.994;2023-02-01T13:59:44;2.20;;;1.63;;
6163;SDS011;3114;48.362;10.994;2023-02-01T14:05:11;1.97;;;1.70;;
6163;SDS011;3114;48.362;10.994;2023-02-01T14:08:03;4.10;;;1.93;;
6163;SDS011;3114;48.362;10.994;2023-02-01T14:10:47;3.90;;;1.50;;
6163;SDS011;3114;48.362;10.994;2023-02-01T14:13:23;4.07;;;2.00;;
6163;SDS011;3114;48.362;10.994;2023-02-01T14:16:13;1.33;;;1.17;;
6163;SDS011;3114;48.362;10.994;2023-02-01T14:19:00;3.77;;;2.13;;
6163;SDS011;3114;48.362;10.994;2023-02-01T14:21:29;3.50;;;2.23;;
6163;SDS011;3114;48.362;10.994;2023-02-01T14:23:59;6.57;;;1.80;;
6163;SDS011;3114;48.362;10.994;2023-02-01T14:26:40;1.87;;;1.37;;
6163;SDS011;3114;48.362;10.994;2023-02-01T14:29:22;3.07;;;1.40;;
6163;SDS011;3114;48.362;10.994;2023-02-01T14:31:59;1.67;;;1.27;;
6163;SDS011;3114;48.362;10.994;2023-02-01T14:34:35;3.43;;;1.83;;
6163;SDS011;3114;48.362;10.994;2023-02-01T14:37:08;5.03;;;1.73;;
6163;SDS011;3114;48.362;10.994;2023-02-01T14:39:39;3.90;;;1.50;;
6163;SDS011;3114;48.362;10.994;2023-02-01T14:42:21;6.20;;;1.90;;
6163;SDS011;3114;48.362;10.994;2023-02-01T14:44:53;7.57;;;1.80;;
6163;SDS011;3114;48.362;10.994;2023-02-01T14:47:33;2.30;;;1.10;;
6163;SDS011;3114;48.362;10.994;2023-02-01T14:50:07;3.20;;;1.17;;
6163;SDS011;3114;48.362;10.994;2023-02-01T14:52:45;2.83;;;1.33;;
6163;SDS011;3114;48.362;10.994;2023-02-01T14:55:15;5.07;;;1.70;;
6163;SDS011;3114;48.362;10.994;2023-02-01T14:57:46;5.67;;;1.73;;
6163;SDS011;3114;48.362;10.994;2023-02-01T15:00:22;6.63;;;1.50;;
6163;SDS011;3114;48.362;10.994;2023-02-01T15:02:51;6.97;;;1.50;;
6163;SDS011;3114;48.362;10.994;2023-02-01T15:05:23;5.47;;;1.30;;
6163;SDS011;3114;48.362;10.994;2023-02-01T15:08:00;6.27;;;1.53;;
6163;SDS011;3114;48.362;10.994;2023-02-01T15:10:32;2.63;;;1.30;;
6163;SDS011;3114;48.362;10.994;2023-02-01T15:13:08;1.97;;;0.83;;
6163;SDS011;3114;48.362;10.994;2023-02-01T15:15:45;8.77;;;1.73;;
6163;SDS011;3114;48.362;10.994;2023-02-01T15:18:26;2.77;;;0.80;;
6163;SDS011;3114;48.362;10.994;2023-02-01T15:20:56;3.00;;;1.00;;
6163;SDS011;3114;48.362;10.994;2023-02-01T15:23:23;3.43;;;0.87;;
6163;SDS011;3114;48.362;10.994;2023-02-01T15:25:50;3.00;;;1.10;;
6163;SDS011;3114;48.362;10.994;2023-02-01T15:28:18;4.87;;;1.43;;
6163;SDS011;3114;48.362;10.994;2023-02-01T15:30:53;8.90;;;1.40;;
6163;SDS011;3114;48.362;10.994;2023-02-01T15:33:22;6.70;;;1.43;;
6163;SDS011;3114;48.362;10.994;2023-02-01T15:35:50;5.77;;;1.00;;
6163;SDS011;3114;48.362;10.994;2023-02-01T15:38:25;3.77;;;1.20;;
6163;SDS011;3114;48.362;10.994;2023-02-01T15:41:01;2.63;;;1.03;;